Arbutus, Maryland
Current Conditions -  °F | °C
As of 10:54 PM on Wednesday 22 Oct 2014 (Local Time) from KBWI Reporting Station
Broken Clouds Broken Clouds  
Wind Chill: 54°   Ceiling: 5000
Heat Index: 54°   Visibility: 10mi
Dew Point: 44°   Wind: 12mph
Humidity: 69%   Direction: 320°NW
Pressure: 29.91"   Gusts: 23mph
Location:  39.2187°N, 76.722°W
Report Text: KBWI 230254Z 32010G20KT 10SM FEW036 BKN050 BKN110 12/07 A2991 RMK AO2 SLP128 T01220067 58001
Loading
Personal Weather Stations






























Interactive Weather Map
Tropical Storm Tracking
New forecast layout! Learn more

10-Day Weather Forecast

Advertisements
Track Severe Weather on mobile